Time;durP1;ratioP1;P1;durP2;ratioP2;P2;SDS_P1;SDS_P2;PMS_P1;PMS_P2;Temp;Humidity;BMP_temperature;BMP_pressure;BME280_temperature;BME280_humidity;BME280_pressure;Samples;Min_cycle;Max_cycle;Signal;HPM_P1;HPM_P2
2022/05/14 00:01:00;;;;;;;6.15;2.15;;;11.80;99.90;;;;;;4990178;28;20046;-80
2022/05/14 00:03:31;;;;;;;9.07;2.28;;;11.80;99.90;;;;;;4989885;28;20046;-80
2022/05/14 00:05:59;;;;;;;8.15;2.58;;;11.70;99.90;;;;;;5002764;28;20423;-80
2022/05/14 00:08:26;;;;;;;10.75;2.95;;;11.60;99.90;;;;;;5003339;28;20086;-84
2022/05/14 00:13:36;;;;;;;4.85;2.20;;;11.50;99.90;;;;;;5008225;28;20068;-80
2022/05/14 00:16:03;;;;;;;6.93;2.50;;;11.40;99.90;;;;;;5008172;28;20638;-81
2022/05/14 00:18:29;;;;;;;9.27;2.35;;;11.30;99.90;;;;;;5011531;28;20057;-80
2022/05/14 00:20:55;;;;;;;8.65;2.20;;;11.30;99.90;;;;;;5011263;28;20132;-83
2022/05/14 00:23:21;;;;;;;6.22;2.35;;;11.30;99.90;;;;;;4997004;28;20129;-80
2022/05/14 00:25:47;;;;;;;13.00;2.78;;;11.30;99.90;;;;;;4991430;28;20081;-80
2022/05/14 00:28:13;;;;;;;5.72;2.55;;;11.30;99.90;;;;;;4991296;28;20054;-80
2022/05/14 00:30:39;;;;;;;;;;;11.30;99.90;;;;;;4992721;28;20074;-80
2022/05/14 00:33:05;;;;;;;7.78;2.50;;;11.30;99.90;;;;;;4999929;28;20366;-80
2022/05/14 00:35:32;;;;;;;;;;;11.30;99.90;;;;;;5011777;28;20050;-80
2022/05/14 00:37:58;;;;;;;5.05;2.17;;;11.30;99.90;;;;;;5011547;28;20341;-84
2022/05/14 00:40:32;;;;;;;6.55;2.08;;;11.30;99.90;;;;;;5008932;28;20053;-80
2022/05/14 00:42:59;;;;;;;6.43;2.58;;;11.30;99.90;;;;;;4993756;28;20487;-85
2022/05/14 00:45:25;;;;;;;10.30;2.75;;;11.30;99.90;;;;;;4992321;28;20522;-80
2022/05/14 00:47:54;;;;;;;5.60;2.13;;;11.30;99.90;;;;;;4992345;28;20577;-80
2022/05/14 00:50:30;;;;;;;10.07;2.45;;;11.40;99.90;;;;;;4991174;28;20271;-80
2022/05/14 00:53:16;;;;;;;4.88;2.28;;;11.40;99.90;;;;;;5009528;28;20101;-81
2022/05/14 00:55:45;;;;;;;6.03;2.45;;;11.50;99.90;;;;;;5010798;28;20100;-81
2022/05/14 00:58:26;;;;;;;4.68;2.40;;;11.50;99.90;;;;;;5010925;28;20156;-80
2022/05/14 01:00:52;;;;;;;3.88;2.08;;;11.50;99.90;;;;;;5011731;28;20060;-80
2022/05/14 01:03:18;;;;;;;9.02;2.13;;;11.40;99.90;;;;;;5010940;28;20065;-80
2022/05/14 01:05:44;;;;;;;4.60;2.22;;;11.40;99.90;;;;;;4997033;28;20137;-80
2022/05/14 01:08:10;;;;;;;8.02;2.30;;;11.40;99.90;;;;;;5005794;28;20050;-80
2022/05/14 01:10:42;;;;;;;4.72;2.10;;;11.40;99.90;;;;;;4974782;28;20050;-80
2022/05/14 01:13:08;;;;;;;6.70;2.25;;;11.50;99.90;;;;;;4990824;28;20038;-79
2022/05/14 01:15:48;;;;;;;6.88;2.45;;;11.50;99.90;;;;;;4991632;28;20057;-80
2022/05/14 01:18:20;;;;;;;6.07;2.28;;;11.50;99.90;;;;;;4991023;28;20093;-80
2022/05/14 01:20:57;;;;;;;5.65;2.17;;;11.50;99.90;;;;;;4990997;28;20229;-80
2022/05/14 01:26:36;;;;;;;4.80;2.10;;;11.50;99.90;;;;;;4979323;28;20054;-80
2022/05/14 01:29:11;;;;;;;7.25;1.85;;;11.50;99.90;;;;;;4990357;28;20448;-80
2022/05/14 01:31:38;;;;;;;9.93;2.20;;;11.50;99.90;;;;;;5001607;28;20050;-80
2022/05/14 01:34:10;;;;;;;4.63;1.92;;;11.50;99.90;;;;;;4997010;28;20676;-84
2022/05/14 01:36:37;;;;;;;7.15;2.47;;;11.50;99.90;;;;;;4995427;28;20408;-80
2022/05/14 01:39:04;;;;;;;6.03;2.25;;;11.50;99.90;;;;;;4990901;28;20423;-80
2022/05/14 01:41:30;;;;;;;11.90;2.08;;;11.60;99.90;;;;;;4989483;28;20085;-80
2022/05/14 01:43:55;;;;;;;5.22;1.70;;;11.60;99.90;;;;;;4990877;28;20081;-80
2022/05/14 01:46:21;;;;;;;3.58;1.98;;;11.50;99.90;;;;;;4974605;28;20567;-80
2022/05/14 01:48:47;;;;;;;3.42;1.75;;;11.60;99.90;;;;;;4991259;28;20090;-80
2022/05/14 01:51:13;;;;;;;;;;;11.50;99.90;;;;;;4993740;28;20053;-80
2022/05/14 01:53:39;;;;;;;7.25;2.50;;;11.50;99.90;;;;;;5010309;28;19921;-80
2022/05/14 01:56:05;;;;;;;5.25;2.00;;;11.50;99.90;;;;;;5009428;28;20388;-80
2022/05/14 01:58:37;;;;;;;7.65;2.40;;;11.50;99.90;;;;;;5009244;28;20046;-80
2022/05/14 02:01:29;;;;;;;6.72;2.17;;;11.60;99.90;;;;;;5009760;28;20056;-80
2022/05/14 02:04:11;;;;;;;6.00;2.10;;;11.60;99.90;;;;;;5005422;28;20072;-81
2022/05/14 02:06:38;;;;;;;7.57;2.10;;;11.60;99.90;;;;;;4990489;28;20526;-80
2022/05/14 02:09:06;;;;;;;8.25;1.80;;;11.60;99.90;;;;;;5009523;28;20477;-80
2022/05/14 02:11:32;;;;;;;6.03;2.13;;;11.60;99.90;;;;;;5004309;28;20058;-79
2022/05/14 02:13:59;;;;;;;10.55;2.58;;;11.60;99.90;;;;;;4979929;28;20121;-80
2022/05/14 02:16:24;;;;;;;5.47;2.28;;;11.60;99.90;;;;;;4989858;28;20050;-80
2022/05/14 02:18:50;;;;;;;7.47;2.42;;;11.60;99.90;;;;;;4993787;28;20112;-80
2022/05/14 02:21:18;;;;;;;10.13;2.00;;;11.50;99.90;;;;;;5008924;28;20053;-80
2022/05/14 02:23:44;;;;;;;5.00;2.30;;;11.50;99.90;;;;;;4993756;28;20225;-80
2022/05/14 02:26:11;;;;;;;14.77;2.40;;;11.50;99.90;;;;;;4992659;28;20148;-83
2022/05/14 02:28:38;;;;;;;10.43;2.50;;;11.50;99.90;;;;;;5009537;28;20092;-79
2022/05/14 02:31:04;;;;;;;6.65;2.10;;;11.50;99.90;;;;;;5009831;28;20474;-80
2022/05/14 02:33:30;;;;;;;8.38;2.67;;;11.50;99.90;;;;;;5000870;28;20124;-80
2022/05/14 02:35:56;;;;;;;4.85;2.92;;;11.50;99.90;;;;;;4994738;28;20113;-80
2022/05/14 02:38:22;;;;;;;5.57;2.15;;;11.40;99.90;;;;;;4989591;28;20141;-82
2022/05/14 02:40:48;;;;;;;7.32;2.33;;;11.40;99.90;;;;;;4972461;28;20161;-80
2022/05/14 02:43:14;;;;;;;8.20;2.10;;;11.30;99.90;;;;;;4973018;28;20050;-80
2022/05/14 02:45:40;;;;;;;11.15;2.33;;;11.30;99.90;;;;;;5007721;28;20057;-80
2022/05/14 02:48:08;;;;;;;8.55;2.72;;;11.20;99.90;;;;;;5009690;28;20104;-80
2022/05/14 02:50:34;;;;;;;7.60;2.53;;;11.20;99.90;;;;;;5008310;28;20050;-80
2022/05/14 02:53:00;;;;;;;11.48;2.60;;;11.20;99.90;;;;;;5009330;28;20103;-80
2022/05/14 02:55:25;;;;;;;6.13;2.65;;;11.20;99.90;;;;;;5008934;28;20089;-81
2022/05/14 02:57:51;;;;;;;5.05;2.60;;;11.10;99.90;;;;;;4998666;28;20127;-80
2022/05/14 03:00:19;;;;;;;11.70;2.50;;;11.10;99.90;;;;;;4989162;28;20057;-80
2022/05/14 03:02:45;;;;;;;6.25;2.25;;;11.00;99.90;;;;;;4991790;28;20046;-82
2022/05/14 03:05:13;;;;;;;8.82;2.50;;;10.90;99.90;;;;;;5000713;28;20125;-82
2022/05/14 03:07:40;;;;;;;4.35;2.55;;;10.90;99.90;;;;;;4989109;28;20492;-80
2022/05/14 03:10:06;;;;;;;6.28;2.55;;;10.80;99.90;;;;;;4989632;28;20054;-80
2022/05/14 03:12:32;;;;;;;10.15;2.70;;;10.70;99.90;;;;;;4987366;28;20058;-80
2022/05/14 03:15:00;;;;;;;5.57;2.50;;;10.70;99.90;;;;;;4991183;28;20395;-80
2022/05/14 03:17:27;;;;;;;6.50;2.55;;;10.80;99.90;;;;;;5008563;28;20050;-80
2022/05/14 03:19:53;;;;;;;9.27;2.50;;;10.60;99.90;;;;;;5001224;28;20042;-80
2022/05/14 03:22:19;;;;;;;5.40;2.60;;;10.50;99.90;;;;;;5000694;28;20057;-80
2022/05/14 03:24:45;;;;;;;;;;;10.50;99.90;;;;;;4993184;28;20069;-81
2022/05/14 03:27:13;;;;;;;5.95;2.35;;;10.40;99.90;;;;;;5007748;28;19921;-80
2022/05/14 03:29:40;;;;;;;7.25;3.03;;;10.30;99.90;;;;;;5008599;28;20061;-80
2022/05/14 03:32:06;;;;;;;8.90;2.65;;;10.20;99.90;;;;;;5004289;28;20530;-80
2022/05/14 03:34:32;;;;;;;;;;;10.10;99.90;;;;;;4994320;28;20127;-81
2022/05/14 03:36:58;;;;;;;8.85;2.72;;;10.10;99.90;;;;;;4988656;28;19922;-80
2022/05/14 03:39:24;;;;;;;10.82;3.00;;;10.00;99.90;;;;;;4988738;28;20047;-81
2022/05/14 03:41:50;;;;;;;7.10;3.13;;;9.90;99.90;;;;;;4990296;28;20068;-81
2022/05/14 03:44:16;;;;;;;5.80;2.55;;;9.90;99.90;;;;;;4995882;28;20050;-84
2022/05/14 03:46:42;;;;;;;5.18;2.80;;;9.90;99.90;;;;;;4972910;28;20058;-81
2022/05/14 03:49:08;;;;;;;8.73;2.80;;;9.80;99.90;;;;;;4990638;28;20046;-80
2022/05/14 03:51:34;;;;;;;7.82;2.95;;;9.80;99.90;;;;;;4988579;28;20415;-80
2022/05/14 03:54:00;;;;;;;6.93;2.63;;;9.70;99.90;;;;;;5011315;28;20050;-80
2022/05/14 03:56:26;;;;;;;;;;;9.70;99.90;;;;;;5011762;28;20056;-81
2022/05/14 03:58:52;;;;;;;7.15;3.53;;;9.70;99.90;;;;;;4994700;28;19976;-80
2022/05/14 04:01:18;;;;;;;8.70;3.03;;;9.60;99.90;;;;;;5005364;28;20045;-84
2022/05/14 04:03:45;;;;;;;9.07;2.83;;;9.60;99.90;;;;;;5011904;28;20050;-80
2022/05/14 04:06:11;;;;;;;6.88;3.33;;;9.60;99.90;;;;;;4997990;28;20054;-80
2022/05/14 04:08:38;;;;;;;8.38;2.92;;;9.60;99.90;;;;;;5005613;28;20058;-80
2022/05/14 04:11:04;;;;;;;8.68;3.25;;;9.50;99.90;;;;;;4996742;28;20077;-80
2022/05/14 04:13:30;;;;;;;9.30;3.20;;;9.60;99.90;;;;;;4992088;28;20058;-81
2022/05/14 04:15:56;;;;;;;6.13;3.08;;;9.50;99.90;;;;;;5012296;28;20112;-82
2022/05/14 04:18:25;;;;;;;11.27;3.35;;;9.60;99.90;;;;;;5011788;28;20127;-82
2022/05/14 04:20:55;;;;;;;7.72;2.90;;;9.60;99.90;;;;;;4989764;28;20459;-80
2022/05/14 04:23:22;;;;;;;12.70;2.80;;;9.60;99.90;;;;;;5012077;28;20046;-83
2022/05/14 04:25:50;;;;;;;8.50;3.03;;;9.60;99.90;;;;;;4991269;28;20046;-80
2022/05/14 04:28:16;;;;;;;8.75;3.20;;;9.80;99.90;;;;;;4992002;28;20094;-81
2022/05/14 04:30:42;;;;;;;;;;;9.70;99.90;;;;;;4992263;28;20050;-81
2022/05/14 04:33:07;;;;;;;9.05;3.15;;;9.80;99.90;;;;;;4985299;28;19921;-81
2022/05/14 04:35:33;;;;;;;9.23;3.08;;;9.80;99.90;;;;;;5006796;28;20054;-81
2022/05/14 04:37:59;;;;;;;10.75;3.28;;;9.80;99.90;;;;;;4992431;28;20526;-81
2022/05/14 04:40:24;;;;;;;12.25;3.10;;;9.90;99.90;;;;;;4992283;28;20407;-81
2022/05/14 04:42:50;;;;;;;6.43;3.03;;;9.90;99.90;;;;;;4991290;28;20542;-81
2022/05/14 04:45:16;;;;;;;9.82;3.20;;;10.10;99.90;;;;;;4977158;28;20050;-81
2022/05/14 04:47:41;;;;;;;7.68;3.15;;;9.90;99.90;;;;;;4992675;28;20054;-81
2022/05/14 04:50:09;;;;;;;9.80;3.55;;;9.90;99.90;;;;;;4975811;28;20049;-81
2022/05/14 04:52:34;;;;;;;6.82;3.15;;;10.00;99.90;;;;;;4975298;28;20066;-81
2022/05/14 04:55:00;;;;;;;10.15;2.97;;;10.00;99.90;;;;;;4992073;28;20046;-81
2022/05/14 04:57:26;;;;;;;8.13;3.20;;;10.00;99.90;;;;;;4973718;28;20108;-80
2022/05/14 04:59:53;;;;;;;8.35;2.88;;;10.10;99.90;;;;;;4998679;28;20064;-81
2022/05/14 05:05:04;;;;;;;8.07;3.25;;;10.20;99.90;;;;;;5011515;28;20050;-81
2022/05/14 05:07:30;;;;;;;11.38;3.10;;;10.20;99.90;;;;;;5009617;28;20050;-81
2022/05/14 05:09:56;;;;;;;12.85;3.67;;;10.30;99.90;;;;;;5002967;28;20111;-81
2022/05/14 05:12:22;;;;;;;14.07;3.67;;;10.30;99.90;;;;;;5004935;28;20505;-81
2022/05/14 05:14:47;;;;;;;9.80;3.60;;;10.40;99.90;;;;;;4991338;28;20046;-81
2022/05/14 05:17:13;;;;;;;9.90;3.65;;;10.50;99.90;;;;;;4991530;28;20145;-80
2022/05/14 05:19:39;;;;;;;9.85;3.63;;;10.50;99.90;;;;;;5005273;28;20132;-81
2022/05/14 05:22:05;;;;;;;15.60;3.92;;;10.50;99.90;;;;;;5001402;28;20145;-81
2022/05/14 05:24:32;;;;;;;12.40;4.00;;;10.60;99.90;;;;;;5010791;28;20050;-81
2022/05/14 05:26:58;;;;;;;13.68;3.13;;;10.70;99.90;;;;;;5009826;28;20046;-80
2022/05/14 05:29:23;;;;;;;9.18;3.90;;;10.70;99.90;;;;;;4993629;28;20469;-81
2022/05/14 05:31:49;;;;;;;9.52;3.67;;;10.80;99.90;;;;;;5009148;28;20054;-81
2022/05/14 05:34:15;;;;;;;10.45;4.13;;;10.80;99.90;;;;;;4994795;28;20049;-80
2022/05/14 05:36:41;;;;;;;15.80;3.90;;;10.80;99.90;;;;;;5009291;28;20484;-81
2022/05/14 05:39:06;;;;;;;8.15;3.33;;;10.90;99.90;;;;;;4995019;28;20488;-80
2022/05/14 05:41:32;;;;;;;10.25;3.80;;;11.00;99.90;;;;;;4973372;28;20047;-80
2022/05/14 05:43:58;;;;;;;10.32;4.22;;;11.00;99.90;;;;;;4990738;28;20065;-80
2022/05/14 05:46:24;;;;;;;15.32;3.83;;;11.10;99.90;;;;;;4993291;28;20050;-81
2022/05/14 05:48:50;;;;;;;13.07;4.18;;;11.20;99.90;;;;;;4992895;28;20388;-81
2022/05/14 05:51:16;;;;;;;11.07;3.72;;;11.20;99.90;;;;;;4994252;28;20046;-81
2022/05/14 05:59:11;;;;;;;10.48;3.60;;;11.30;99.90;;;;;;5000107;28;20550;-81
2022/05/14 06:01:36;;;;;;;13.60;4.25;;;11.40;99.90;;;;;;4995973;28;20045;-80
2022/05/14 06:04:02;;;;;;;17.73;4.60;;;11.50;99.90;;;;;;4993273;28;20574;-79
2022/05/14 06:06:28;;;;;;;15.55;4.20;;;11.60;99.90;;;;;;5001831;28;20111;-79
2022/05/14 06:08:54;;;;;;;12.02;4.53;;;12.30;99.90;;;;;;4987437;28;20132;-80
2022/05/14 06:11:20;;;;;;;20.30;4.38;;;11.70;99.90;;;;;;4987303;28;20054;-80
2022/05/14 06:13:47;;;;;;;18.88;4.43;;;11.80;99.90;;;;;;5008873;28;20049;-80
2022/05/14 06:16:14;;;;;;;;;;;11.80;99.90;;;;;;5001101;28;20129;-80
2022/05/14 06:18:42;;;;;;;15.52;4.60;;;11.90;99.90;;;;;;5009712;28;19925;-81
2022/05/14 06:21:09;;;;;;;13.07;4.18;;;11.90;99.90;;;;;;4979379;28;20086;-81
2022/05/14 06:23:35;;;;;;;13.77;4.47;;;12.60;99.90;;;;;;4997917;28;20478;-79
2022/05/14 06:26:01;;;;;;;14.48;4.65;;;12.20;99.90;;;;;;4997642;28;20082;-80
2022/05/14 06:28:27;;;;;;;15.75;4.60;;;12.20;99.90;;;;;;4989908;28;20047;-79
2022/05/14 06:30:53;;;;;;;12.15;4.50;;;12.40;99.90;;;;;;4982449;28;20041;-81
2022/05/14 06:33:19;;;;;;;9.15;4.43;;;12.40;99.90;;;;;;5009932;28;20066;-78
2022/05/14 06:35:45;;;;;;;16.27;5.13;;;12.40;99.90;;;;;;5008607;28;20049;-77
2022/05/14 06:38:12;;;;;;;10.82;4.43;;;12.50;99.90;;;;;;5009676;28;20418;-78
2022/05/14 06:40:39;;;;;;;13.98;4.35;;;12.60;99.90;;;;;;5007868;28;20074;-77
2022/05/14 06:43:05;;;;;;;12.88;4.47;;;12.60;99.90;;;;;;5002618;28;20499;-77
2022/05/14 06:45:30;;;;;;;;;;;12.70;99.90;;;;;;5001814;28;20042;-79
2022/05/14 06:47:57;;;;;;;12.48;4.40;;;12.80;99.90;;;;;;5009188;28;19936;-78
2022/05/14 06:50:24;;;;;;;16.02;5.03;;;12.80;99.90;;;;;;5008991;28;20088;-78
2022/05/14 06:52:56;;;;;;;10.80;4.25;;;12.80;99.90;;;;;;4992732;28;20128;-79
2022/05/14 06:55:24;;;;;;;14.60;4.85;;;12.90;99.90;;;;;;4995122;28;20054;-77
2022/05/14 06:57:51;;;;;;;13.85;4.47;;;12.90;99.90;;;;;;5005591;28;20054;-81
2022/05/14 07:00:18;;;;;;;16.85;5.57;;;13.00;99.90;;;;;;5003401;28;20057;-79
2022/05/14 07:02:44;;;;;;;12.32;4.80;;;13.00;99.90;;;;;;5003228;28;20050;-77
2022/05/14 07:07:55;;;;;;;11.82;4.03;;;13.00;99.90;;;;;;4984670;28;20375;-77
2022/05/14 07:10:21;;;;;;;;;;;13.00;99.90;;;;;;5004803;28;20054;-78
2022/05/14 07:12:47;;;;;;;14.45;4.55;;;13.10;99.90;;;;;;5007493;28;20374;-76
2022/05/14 07:15:13;;;;;;;12.55;5.10;;;13.10;99.90;;;;;;5009351;28;20072;-77
2022/05/14 07:17:39;;;;;;;12.45;4.63;;;13.10;99.90;;;;;;5002646;28;20097;-82
2022/05/14 07:20:05;;;;;;;;;;;13.10;99.90;;;;;;5004978;28;20049;-80
2022/05/14 07:22:31;;;;;;;9.93;4.80;;;13.10;99.90;;;;;;5007984;28;19928;-77
2022/05/14 07:24:57;;;;;;;17.10;4.95;;;13.20;99.90;;;;;;4991162;28;20255;-80
2022/05/14 07:27:23;;;;;;;20.00;4.68;;;13.20;99.90;;;;;;5008085;28;20046;-78
2022/05/14 07:29:48;;;;;;;12.63;4.50;;;13.30;99.90;;;;;;5012261;28;20037;-77
2022/05/14 07:32:16;;;;;;;14.70;4.88;;;13.40;99.90;;;;;;4996353;28;20046;-78
2022/05/14 07:34:42;;;;;;;13.57;4.88;;;13.50;99.90;;;;;;5012336;28;20045;-78
2022/05/14 07:37:22;;;;;;;17.02;4.43;;;13.50;99.90;;;;;;5008572;28;20065;-77
2022/05/14 07:40:08;;;;;;;17.27;4.28;;;13.60;99.90;;;;;;5011486;28;20411;-81
2022/05/14 07:42:43;;;;;;;11.60;4.50;;;13.60;99.90;;;;;;5007531;28;20050;-81
2022/05/14 07:45:14;;;;;;;14.02;4.93;;;13.70;99.90;;;;;;5012780;28;20129;-80
2022/05/14 07:47:40;;;;;;;13.35;4.30;;;13.80;99.90;;;;;;5029237;28;20058;-81
2022/05/14 07:50:07;;;;;;;14.35;4.22;;;14.00;99.90;;;;;;5005504;28;20046;-84
2022/05/14 07:52:33;;;;;;;17.23;4.65;;;14.00;99.90;;;;;;5002302;28;20057;-76
2022/05/14 07:54:58;;;;;;;15.32;4.30;;;14.10;99.90;;;;;;5002860;28;20050;-73
2022/05/14 07:57:24;;;;;;;20.30;4.68;;;14.20;99.90;;;;;;5013117;28;20045;-74
2022/05/14 07:59:50;;;;;;;14.95;4.07;;;14.20;99.90;;;;;;5012784;28;20049;-74
2022/05/14 08:02:31;;;;;;;18.45;4.13;;;14.30;99.90;;;;;;5008096;28;20502;-74
2022/05/14 08:05:03;;;;;;;11.98;4.55;;;14.40;99.90;;;;;;4998642;28;20411;-74
2022/05/14 08:07:30;;;;;;;13.65;3.97;;;14.40;99.90;;;;;;5012292;28;20056;-74
2022/05/14 08:09:55;;;;;;;14.52;3.88;;;14.50;99.90;;;;;;5012561;28;20384;-74
2022/05/14 08:12:21;;;;;;;10.05;3.85;;;14.50;99.90;;;;;;5012846;28;20254;-74
2022/05/14 08:14:47;;;;;;;11.93;3.17;;;14.50;99.90;;;;;;5004085;28;20511;-78
2022/05/14 08:17:13;;;;;;;19.98;4.13;;;14.60;99.90;;;;;;5005135;28;20486;-77
2022/05/14 08:19:39;;;;;;;20.45;3.58;;;14.70;99.90;;;;;;4999179;28;20104;-77
2022/05/14 08:24:50;;;;;;;16.63;3.30;;;14.90;99.90;;;;;;5001065;28;20061;-78
2022/05/14 08:27:17;;;;;;;11.30;2.67;;;15.10;99.90;;;;;;5000500;28;20380;-77
2022/05/14 08:29:45;;;;;;;16.05;3.13;;;15.20;99.90;;;;;;5009853;28;20463;-80
2022/05/14 08:32:11;;;;;;;17.58;3.25;;;15.20;99.90;;;;;;4989299;28;20153;-79
2022/05/14 08:34:36;;;;;;;20.13;2.80;;;15.30;99.90;;;;;;5011974;28;20176;-74
2022/05/14 08:37:02;;;;;;;13.43;3.00;;;15.30;99.90;;;;;;5010392;28;20383;-74
2022/05/14 08:39:28;;;;;;;13.32;3.58;;;15.40;99.90;;;;;;5010118;28;20050;-75
2022/05/14 08:41:55;;;;;;;18.33;3.03;;;15.40;99.90;;;;;;5010490;28;20069;-74
2022/05/14 08:44:30;;;;;;;13.27;3.00;;;15.50;99.90;;;;;;4984510;28;20050;-74
2022/05/14 08:46:59;;;;;;;14.70;3.25;;;15.50;99.90;;;;;;5003917;28;20054;-74
2022/05/14 08:49:32;;;;;;;11.63;3.00;;;15.60;99.90;;;;;;5012060;28;20042;-74
2022/05/14 08:51:59;;;;;;;11.85;2.75;;;15.70;99.90;;;;;;5010902;28;20055;-74
2022/05/14 08:54:26;;;;;;;10.80;2.67;;;15.80;99.90;;;;;;5012292;28;20100;-75
2022/05/14 08:56:57;;;;;;;16.75;2.67;;;16.00;99.90;;;;;;5010995;28;20050;-75
2022/05/14 08:59:40;;;;;;;13.00;2.72;;;16.10;99.90;;;;;;5012214;28;20139;-74
2022/05/14 09:02:16;;;;;;;12.52;2.60;;;16.20;99.90;;;;;;4994605;28;20144;-74
2022/05/14 09:04:43;;;;;;;18.67;2.70;;;16.30;99.90;;;;;;4996038;28;20061;-74
2022/05/14 09:07:09;;;;;;;11.20;2.65;;;16.50;99.90;;;;;;5010604;28;20543;-74
2022/05/14 09:09:34;;;;;;;13.30;2.53;;;16.50;99.90;;;;;;5011503;28;20050;-75
2022/05/14 09:12:01;;;;;;;;;;;16.50;99.90;;;;;;5010330;28;20111;-75
2022/05/14 09:14:34;;;;;;;11.65;2.17;;;16.50;99.90;;;;;;4992999;28;20375;-74
2022/05/14 09:17:13;;;;;;;8.38;2.17;;;16.40;99.90;;;;;;4994511;28;20565;-74
2022/05/14 09:19:41;;;;;;;5.20;2.17;;;16.60;99.90;;;;;;5011973;28;20089;-74
2022/05/14 09:22:28;;;;;;;12.93;3.15;;;16.70;99.90;;;;;;5010456;28;20156;-74
2022/05/14 09:24:57;;;;;;;9.23;2.45;;;16.90;99.90;;;;;;5011359;28;20061;-74
2022/05/14 09:27:27;;;;;;;8.18;2.72;;;17.00;99.90;;;;;;5010392;28;20514;-74
2022/05/14 09:30:07;;;;;;;15.10;2.78;;;17.10;99.90;;;;;;5012135;28;20484;-74
2022/05/14 09:32:44;;;;;;;14.65;2.33;;;17.30;99.90;;;;;;4999958;28;20514;-75
2022/05/14 09:35:11;;;;;;;11.55;1.98;;;17.50;99.90;;;;;;5003466;28;20053;-75
2022/05/14 09:37:39;;;;;;;9.43;2.15;;;17.60;99.90;;;;;;5010661;28;20057;-74
2022/05/14 09:40:18;;;;;;;14.38;2.75;;;17.70;99.90;;;;;;5008538;28;20145;-74
2022/05/14 09:42:50;;;;;;;11.32;2.22;;;17.60;99.90;;;;;;5006693;28;20041;-74
2022/05/14 09:45:22;;;;;;;11.20;2.80;;;17.60;99.90;;;;;;5006469;28;20046;-74
2022/05/14 09:47:48;;;;;;;10.45;2.17;;;17.50;99.90;;;;;;5009370;28;20550;-74
2022/05/14 09:50:33;;;;;;;11.10;2.17;;;17.50;99.90;;;;;;5006190;28;20049;-74
2022/05/14 09:53:05;;;;;;;14.50;2.78;;;17.50;99.90;;;;;;4991841;28;20050;-74
2022/05/14 09:55:58;;;;;;;11.50;2.47;;;17.60;99.90;;;;;;5000958;28;20053;-75
2022/05/14 09:58:42;;;;;;;10.23;2.28;;;17.80;99.40;;;;;;5010789;28;20054;-74
2022/05/14 10:01:13;;;;;;;11.68;2.45;;;17.90;99.90;;;;;;5010091;28;20091;-74
2022/05/14 10:04:05;;;;;;;7.78;2.00;;;18.10;99.90;;;;;;5011793;28;20046;-74
2022/05/14 10:06:55;;;;;;;10.52;1.92;;;18.20;99.90;;;;;;5010312;28;20403;-74
2022/05/14 10:09:35;;;;;;;11.80;2.42;;;18.30;99.10;;;;;;5019009;28;20143;-73
2022/05/14 10:12:27;;;;;;;12.35;2.63;;;18.40;98.20;;;;;;5041722;28;20061;-74
2022/05/14 10:15:08;;;;;;;8.98;1.95;;;18.50;97.20;;;;;;4971887;28;20062;-75
2022/05/14 10:17:43;;;;;;;10.95;2.22;;;18.40;97.30;;;;;;5009249;28;20042;-76
2022/05/14 10:20:30;;;;;;;19.98;2.50;;;18.40;95.90;;;;;;5010043;28;20171;-76
2022/05/14 10:26:47;;;;;;;15.35;2.65;;;18.30;96.30;;;;;;5009121;28;20347;-74
2022/05/14 10:29:40;;;;;;;8.10;2.30;;;18.40;98.80;;;;;;5008085;28;20085;-75
2022/05/14 10:32:11;;;;;;;15.40;2.70;;;18.40;97.10;;;;;;4990213;28;20188;-74
2022/05/14 10:35:08;;;;;;;10.93;2.50;;;18.40;96.40;;;;;;4990894;28;20125;-75
2022/05/14 10:37:50;;;;;;;13.03;2.87;;;18.30;97.00;;;;;;4973648;28;20043;-75
2022/05/14 10:40:37;;;;;;;10.50;2.47;;;18.40;97.20;;;;;;4990003;28;20587;-75
2022/05/14 10:43:09;;;;;;;10.65;2.42;;;18.50;96.00;;;;;;4989930;28;20854;-75
2022/05/14 10:45:46;;;;;;;11.50;2.45;;;18.70;95.60;;;;;;4995524;28;20042;-75
2022/05/14 10:48:42;;;;;;;9.00;2.13;;;18.80;95.50;;;;;;4986822;28;20086;-74
2022/05/14 10:51:10;;;;;;;10.15;2.50;;;19.00;93.10;;;;;;5002025;28;20053;-74
2022/05/14 10:53:40;;;;;;;10.27;2.30;;;19.10;94.00;;;;;;5010180;28;20487;-75
2022/05/14 10:56:30;;;;;;;12.55;2.67;;;19.10;94.20;;;;;;5008629;28;20054;-74
2022/05/14 10:59:11;;;;;;;12.57;2.17;;;19.10;93.40;;;;;;5009655;28;20092;-74
2022/05/14 11:01:58;;;;;;;12.43;2.33;;;19.10;91.20;;;;;;4996309;28;20054;-74
2022/05/14 11:04:48;;;;;;;9.48;2.20;;;19.00;91.90;;;;;;4989923;28;20054;-74
2022/05/14 11:07:34;;;;;;;12.00;1.83;;;18.90;90.50;;;;;;4989336;28;20054;-74
2022/05/14 11:10:33;;;;;;;6.63;1.73;;;18.80;90.70;;;;;;4998747;28;20045;-76
2022/05/14 11:13:12;;;;;;;10.90;1.88;;;18.80;91.70;;;;;;5009430;28;20096;-75
2022/05/14 11:15:39;;;;;;;9.77;2.17;;;18.90;90.80;;;;;;5009587;28;20046;-75
2022/05/14 11:18:15;;;;;;;13.27;2.58;;;19.10;91.20;;;;;;4998206;28;20046;-74
2022/05/14 11:20:57;;;;;;;9.80;2.17;;;19.50;91.70;;;;;;4973317;28;20057;-74
2022/05/14 11:23:23;;;;;;;9.05;2.05;;;19.80;89.00;;;;;;4989800;28;20054;-74
2022/05/14 11:26:06;;;;;;;12.18;2.28;;;19.90;80.80;;;;;;4989237;28;20053;-74
2022/05/14 11:28:32;;;;;;;8.95;2.08;;;19.80;80.10;;;;;;4990002;28;20137;-74
2022/05/14 11:31:10;;;;;;;;;;;20.00;80.50;;;;;;4995725;28;20133;-75
2022/05/14 11:33:37;;;;;;;12.18;2.17;;;20.00;80.10;;;;;;4990664;28;19941;-74
2022/05/14 11:36:12;;;;;;;11.43;2.30;;;19.90;79.60;;;;;;5003770;28;20097;-76
2022/05/14 11:38:41;;;;;;;10.68;2.13;;;19.80;77.00;;;;;;5009311;28;20079;-74
2022/05/14 11:41:10;;;;;;;8.00;1.95;;;19.60;79.70;;;;;;5008278;28;20054;-75
2022/05/14 11:43:43;;;;;;;9.63;2.00;;;19.60;79.50;;;;;;5009328;28;20517;-75
2022/05/14 11:46:09;;;;;;;9.95;2.03;;;19.90;78.40;;;;;;4999279;28;20066;-74
2022/05/14 11:48:39;;;;;;;;;;;20.20;77.50;;;;;;4990516;28;20128;-75
2022/05/14 11:51:42;;;;;;;12.73;2.33;;;20.40;72.00;;;;;;4989288;28;19921;-75
2022/05/14 11:54:17;;;;;;;10.75;2.25;;;20.50;73.40;;;;;;5002241;28;20050;-77
2022/05/14 11:56:58;;;;;;;9.18;2.10;;;20.30;74.30;;;;;;5009540;28;20045;-76
2022/05/14 11:59:56;;;;;;;11.02;2.20;;;20.40;74.90;;;;;;5009158;28;20410;-75
2022/05/14 12:02:35;;;;;;;9.40;2.45;;;21.00;75.10;;;;;;4999310;28;20054;-75
2022/05/14 12:05:05;;;;;;;9.02;1.90;;;21.50;70.90;;;;;;4990043;28;20172;-75
2022/05/14 12:07:43;;;;;;;7.53;1.90;;;21.70;70.00;;;;;;4986130;28;20053;-75
2022/05/14 12:10:28;;;;;;;9.50;2.13;;;21.80;66.80;;;;;;4998448;28;20145;-77
2022/05/14 12:13:11;;;;;;;7.85;1.60;;;21.90;65.80;;;;;;4989296;28;20051;-75
2022/05/14 12:15:57;;;;;;;13.95;2.17;;;21.90;66.90;;;;;;4993517;28;20142;-76
2022/05/14 12:18:23;;;;;;;11.85;1.80;;;21.80;67.40;;;;;;4993182;28;20062;-76
2022/05/14 12:21:08;;;;;;;8.85;1.83;;;21.80;68.10;;;;;;4992756;28;20053;-75
2022/05/14 12:23:39;;;;;;;11.77;1.70;;;22.10;69.30;;;;;;4992878;28;20089;-75
2022/05/14 12:26:17;;;;;;;8.88;1.70;;;22.80;71.30;;;;;;4975898;28;20108;-75
2022/05/14 12:28:43;;;;;;;9.45;1.92;;;23.40;71.30;;;;;;5007331;28;20136;-76
2022/05/14 12:34:02;;;;;;;8.57;1.92;;;23.30;64.80;;;;;;5005949;28;20053;-75
2022/05/14 12:36:34;;;;;;;9.23;1.85;;;22.80;62.20;;;;;;4995221;28;20034;-75
2022/05/14 12:39:06;;;;;;;9.27;1.80;;;22.50;61.80;;;;;;5012331;28;20069;-75
2022/05/14 12:41:39;;;;;;;8.63;2.10;;;22.30;62.50;;;;;;5012244;28;20229;-75
2022/05/14 12:44:13;;;;;;;9.20;1.80;;;22.00;62.20;;;;;;5011701;28;20045;-76
2022/05/14 12:46:42;;;;;;;7.30;1.60;;;21.80;62.90;;;;;;4997837;28;20474;-75
2022/05/14 12:49:24;;;;;;;8.07;2.22;;;21.60;62.80;;;;;;4992930;28;20054;-75
2022/05/14 12:51:56;;;;;;;14.02;2.22;;;21.50;63.10;;;;;;5005653;28;20049;-75
2022/05/14 12:54:26;;;;;;;8.77;2.15;;;21.40;63.80;;;;;;5008402;28;20483;-75
2022/05/14 12:56:56;;;;;;;10.07;1.77;;;21.40;63.30;;;;;;5010767;28;20054;-75
2022/05/14 12:59:23;;;;;;;7.88;1.98;;;21.40;63.40;;;;;;5001339;28;20088;-76
2022/05/14 13:01:52;;;;;;;8.73;2.00;;;21.40;62.50;;;;;;4993502;28;20051;-76
2022/05/14 13:04:22;;;;;;;10.18;1.85;;;21.40;62.60;;;;;;4991648;28;20046;-75
2022/05/14 13:06:48;;;;;;;7.05;1.42;;;21.30;62.90;;;;;;4993622;28;20054;-75
2022/05/14 13:09:22;;;;;;;14.10;2.40;;;21.40;62.60;;;;;;5010473;28;20101;-77
2022/05/14 13:11:50;;;;;;;6.43;1.80;;;21.30;61.80;;;;;;4994112;28;20049;-75
2022/05/14 13:14:26;;;;;;;10.88;2.00;;;21.20;61.60;;;;;;5011051;28;20053;-75
2022/05/14 13:16:59;;;;;;;7.68;1.92;;;21.10;62.10;;;;;;5011263;28;20046;-75
2022/05/14 13:19:41;;;;;;;7.10;1.65;;;21.20;63.30;;;;;;5011433;28;20089;-75
2022/05/14 13:22:31;;;;;;;12.68;2.28;;;21.80;63.50;;;;;;5002101;28;20503;-75
2022/05/14 13:24:59;;;;;;;9.40;2.03;;;22.30;63.00;;;;;;4990345;28;20054;-75
2022/05/14 13:27:34;;;;;;;9.43;2.30;;;22.50;62.30;;;;;;4990111;28;20097;-75